Time;durP1;ratioP1;P1;durP2;ratioP2;P2;SDS_P1;SDS_P2;PMS_P1;PMS_P2;Temp;Humidity;BMP_temperature;BMP_pressure;BME280_temperature;BME280_humidity;BME280_pressure;Samples;Min_cycle;Max_cycle;Signal;HPM_P1;HPM_P2
2023/06/21 00:00:15;;;;;;;16.48;13.00;;;23.00;77.50;;;;;;5025875;28;20048;-65
2023/06/21 00:02:45;;;;;;;14.25;12.32;;;23.00;77.50;;;;;;5031906;28;20091;-65
2023/06/21 00:05:11;;;;;;;14.43;12.07;;;23.00;77.50;;;;;;5034613;28;20044;-64
2023/06/21 00:07:40;;;;;;;15.07;12.55;;;23.00;77.40;;;;;;5024786;28;20056;-65
2023/06/21 00:10:07;;;;;;;14.75;11.57;;;23.00;77.50;;;;;;5026330;28;20064;-64
2023/06/21 00:12:34;;;;;;;13.18;10.82;;;22.90;77.40;;;;;;5019496;28;20033;-64
2023/06/21 00:15:00;;;;;;;12.85;10.32;;;23.00;77.30;;;;;;5034052;28;20422;-65
2023/06/21 00:17:26;;;;;;;13.93;9.85;;;22.90;77.20;;;;;;5032378;28;20027;-65
2023/06/21 00:19:55;;;;;;;12.27;9.48;;;22.90;77.20;;;;;;5028631;28;20458;-64
2023/06/21 00:22:24;;;;;;;12.13;8.68;;;22.90;77.10;;;;;;5026477;28;20025;-64
2023/06/21 00:24:51;;;;;;;10.52;8.23;;;22.80;76.90;;;;;;5031772;28;20034;-64
2023/06/21 00:27:18;;;;;;;11.82;8.25;;;22.80;77.00;;;;;;5033200;28;20465;-64
2023/06/21 00:29:44;;;;;;;11.43;8.32;;;22.80;77.00;;;;;;5027143;28;20075;-64
2023/06/21 00:32:10;;;;;;;9.50;7.05;;;22.80;77.00;;;;;;5030930;28;20339;-64
2023/06/21 00:34:35;;;;;;;9.98;7.40;;;22.70;76.90;;;;;;5018315;28;20030;-64
2023/06/21 00:37:04;;;;;;;11.25;7.72;;;22.70;77.00;;;;;;5029757;28;20028;-64
2023/06/21 00:39:30;;;;;;;11.10;7.13;;;22.70;76.90;;;;;;5027855;28;20030;-64
2023/06/21 00:41:56;;;;;;;10.88;7.13;;;22.70;76.90;;;;;;5028924;28;20034;-64
2023/06/21 00:44:22;;;;;;;11.25;7.53;;;22.60;76.90;;;;;;5031572;28;20429;-64
2023/06/21 00:46:51;;;;;;;10.13;7.35;;;22.60;76.90;;;;;;5032197;28;20033;-64
2023/06/21 00:49:17;;;;;;;10.18;7.55;;;22.60;76.90;;;;;;5041840;28;20380;-64
2023/06/21 00:51:44;;;;;;;10.63;7.25;;;22.50;76.90;;;;;;5012764;28;20095;-64
2023/06/21 00:54:16;;;;;;;10.13;6.28;;;22.60;76.90;;;;;;5027553;28;20030;-64
2023/06/21 00:56:46;;;;;;;9.75;6.93;;;22.50;76.90;;;;;;5032905;28;20044;-64
2023/06/21 00:59:12;;;;;;;9.48;6.38;;;22.50;77.60;;;;;;5026320;28;20030;-64
2023/06/21 01:01:38;;;;;;;9.68;6.60;;;22.50;76.90;;;;;;5031072;28;20091;-64
2023/06/21 01:04:08;;;;;;;9.50;6.75;;;22.40;76.80;;;;;;5025100;28;20392;-64
2023/06/21 01:06:39;;;;;;;10.80;6.40;;;22.50;76.90;;;;;;5032798;28;20454;-64
2023/06/21 01:09:13;;;;;;;9.43;6.22;;;22.40;76.90;;;;;;5026608;28;20084;-64
2023/06/21 01:11:48;;;;;;;10.00;7.40;;;22.40;76.90;;;;;;5035703;28;20042;-64
2023/06/21 01:14:26;;;;;;;12.50;7.35;;;22.40;76.80;;;;;;5014091;28;20021;-64
2023/06/21 01:16:54;;;;;;;10.32;6.50;;;22.30;76.80;;;;;;5049875;28;20104;-64
2023/06/21 01:19:26;;;;;;;9.77;7.05;;;22.40;76.90;;;;;;5034264;28;20041;-64
2023/06/21 01:21:53;;;;;;;10.10;7.53;;;22.30;76.90;;;;;;5036639;28;20044;-64
2023/06/21 01:24:58;;;;;;;10.52;7.10;;;22.30;76.90;;;;;;5027090;28;20026;-64
2023/06/21 01:27:48;;;;;;;9.95;6.97;;;22.30;76.90;;;;;;5033741;28;20064;-64
2023/06/21 01:30:15;;;;;;;10.07;7.32;;;22.30;77.00;;;;;;5043274;28;20544;-64
2023/06/21 01:32:41;;;;;;;11.05;7.50;;;22.30;77.20;;;;;;5036011;28;20116;-64
2023/06/21 01:35:09;;;;;;;10.85;7.32;;;22.30;77.30;;;;;;5043334;28;20105;-64
2023/06/21 01:37:35;;;;;;;11.40;7.30;;;22.30;77.40;;;;;;5050890;28;20033;-65
2023/06/21 01:40:00;;;;;;;11.48;7.78;;;22.30;77.40;;;;;;5037513;28;20100;-64
2023/06/21 01:42:26;;;;;;;11.43;7.45;;;22.30;77.40;;;;;;5050954;28;20022;-64
2023/06/21 01:44:52;;;;;;;9.82;7.40;;;22.30;77.40;;;;;;5032038;28;20033;-64
2023/06/21 01:47:19;;;;;;;10.93;8.13;;;22.30;77.40;;;;;;5035874;28;20031;-64
2023/06/21 01:49:46;;;;;;;11.80;8.50;;;22.30;77.40;;;;;;5014996;28;20076;-64
2023/06/21 01:52:13;;;;;;;11.63;8.75;;;22.30;77.40;;;;;;5034823;28;20071;-64
2023/06/21 01:54:41;;;;;;;13.27;9.38;;;22.30;77.40;;;;;;5027797;28;20033;-64
2023/06/21 01:57:10;;;;;;;12.65;9.32;;;22.30;77.40;;;;;;5038579;28;20398;-64
2023/06/21 01:59:36;;;;;;;14.05;9.43;;;22.30;77.60;;;;;;5033004;28;20033;-64
2023/06/21 02:02:05;;;;;;;12.05;9.63;;;22.30;77.60;;;;;;5053895;28;20025;-64
2023/06/21 02:04:33;;;;;;;12.73;9.48;;;22.20;77.60;;;;;;5037194;28;20041;-64
2023/06/21 02:07:00;;;;;;;12.95;9.90;;;22.20;77.60;;;;;;5033902;28;20461;-64
2023/06/21 02:09:26;;;;;;;12.45;10.80;;;22.20;77.60;;;;;;5044551;28;20091;-64
2023/06/21 02:11:52;;;;;;;14.10;10.85;;;22.20;77.60;;;;;;5048511;28;20060;-64
2023/06/21 02:14:19;;;;;;;13.15;10.88;;;22.20;77.70;;;;;;5033019;28;20021;-64
2023/06/21 02:16:45;;;;;;;12.70;10.15;;;22.20;77.70;;;;;;5034163;28;20026;-64
2023/06/21 02:19:11;;;;;;;15.30;12.10;;;22.20;77.70;;;;;;5035270;28;20312;-64
2023/06/21 02:21:38;;;;;;;16.92;11.85;;;22.30;77.60;;;;;;5045315;28;20180;-64
2023/06/21 02:24:05;;;;;;;16.42;12.43;;;22.30;77.60;;;;;;5048096;28;20040;-64
2023/06/21 02:26:31;;;;;;;15.48;11.18;;;22.30;77.60;;;;;;5041626;28;20028;-64
2023/06/21 02:28:57;;;;;;;16.05;11.30;;;22.20;77.50;;;;;;5037727;28;20033;-64
2023/06/21 02:31:23;;;;;;;14.73;12.43;;;22.20;77.60;;;;;;5039885;28;20041;-64
2023/06/21 02:33:49;;;;;;;15.57;12.25;;;22.20;77.70;;;;;;5051692;28;20021;-64
2023/06/21 02:36:15;;;;;;;15.93;12.55;;;22.20;77.70;;;;;;5034222;28;20465;-64
2023/06/21 02:38:41;;;;;;;16.83;13.55;;;22.20;78.50;;;;;;5025079;28;20024;-64
2023/06/21 02:41:07;;;;;;;17.67;13.70;;;22.20;77.90;;;;;;5036240;28;20040;-64
2023/06/21 02:43:33;;;;;;;15.75;14.05;;;22.10;77.90;;;;;;5054152;28;20092;-64
2023/06/21 02:46:02;;;;;;;17.77;14.32;;;22.10;78.00;;;;;;5013619;28;20028;-64
2023/06/21 02:48:28;;;;;;;17.00;13.73;;;22.10;78.10;;;;;;5049909;28;20448;-64
2023/06/21 02:50:54;;;;;;;15.65;13.32;;;22.10;78.10;;;;;;5031875;28;20053;-64
2023/06/21 02:53:19;;;;;;;16.15;13.40;;;22.10;78.10;;;;;;5053567;28;20165;-64
2023/06/21 02:55:45;;;;;;;17.85;14.50;;;22.10;78.10;;;;;;5030608;28;20091;-64
2023/06/21 02:58:12;;;;;;;18.98;15.00;;;22.10;78.20;;;;;;5050293;28;20130;-64
2023/06/21 03:00:40;;;;;;;16.20;14.30;;;22.10;78.20;;;;;;5021359;28;20085;-64
2023/06/21 03:03:06;;;;;;;17.48;14.23;;;22.10;78.20;;;;;;5050397;28;20025;-64
2023/06/21 03:05:35;;;;;;;16.67;12.93;;;22.10;78.20;;;;;;5032335;28;20041;-64
2023/06/21 03:08:05;;;;;;;18.77;14.63;;;22.10;78.90;;;;;;5039394;28;20029;-64
2023/06/21 03:10:32;;;;;;;16.98;14.90;;;22.10;78.20;;;;;;5040024;28;20509;-64
2023/06/21 03:13:42;;;;;;;16.42;13.23;;;22.10;78.20;;;;;;5010337;28;20045;-65
2023/06/21 03:16:08;;;;;;;18.40;14.73;;;22.00;78.10;;;;;;5012558;28;20029;-64
2023/06/21 03:18:34;;;;;;;17.17;14.85;;;22.00;78.20;;;;;;4995750;28;20217;-65
2023/06/21 03:21:01;;;;;;;16.60;14.20;;;22.00;78.20;;;;;;5007334;28;20033;-64
2023/06/21 03:23:28;;;;;;;19.63;15.77;;;22.00;78.20;;;;;;4997506;28;20042;-64
2023/06/21 03:25:55;;;;;;;19.02;15.80;;;22.10;78.30;;;;;;4993417;28;20195;-64
2023/06/21 03:28:21;;;;;;;18.83;14.93;;;22.00;78.30;;;;;;4997340;28;20379;-64
2023/06/21 03:30:46;;;;;;;17.73;15.82;;;22.00;78.30;;;;;;4995929;28;20041;-64
2023/06/21 03:33:12;;;;;;;20.35;15.82;;;22.00;78.40;;;;;;5012698;28;20352;-64
2023/06/21 03:35:38;;;;;;;18.77;15.15;;;22.00;78.40;;;;;;4995698;28;20121;-64
2023/06/21 03:38:07;;;;;;;19.90;16.38;;;22.00;78.40;;;;;;5010773;28;20437;-64
2023/06/21 03:40:37;;;;;;;19.08;15.68;;;22.10;78.40;;;;;;4989307;28;20096;-64
2023/06/21 03:43:03;;;;;;;17.35;14.85;;;22.10;78.40;;;;;;5013438;28;20026;-64
2023/06/21 03:45:29;;;;;;;18.17;15.13;;;22.10;78.30;;;;;;5028689;28;20049;-64
2023/06/21 03:48:05;;;;;;;17.05;14.48;;;22.10;78.30;;;;;;5076074;27;1278053;-64
2023/06/21 03:50:33;;;;;;;17.77;14.40;;;22.00;78.30;;;;;;5093309;28;20038;-64
2023/06/21 03:52:59;;;;;;;18.38;14.45;;;22.00;78.30;;;;;;5093469;28;20460;-64
2023/06/21 03:55:26;;;;;;;16.92;14.48;;;22.00;78.30;;;;;;5090215;28;20046;-64
2023/06/21 03:57:52;;;;;;;16.85;13.88;;;22.00;78.30;;;;;;5107784;28;20425;-64
2023/06/21 04:00:18;;;;;;;15.63;13.98;;;22.00;78.30;;;;;;5091223;28;20018;-64
2023/06/21 04:02:49;;;;;;;17.63;15.10;;;22.00;78.20;;;;;;5089605;28;20024;-64
2023/06/21 04:05:15;;;;;;;17.85;13.75;;;22.00;78.30;;;;;;5092722;28;20344;-64
2023/06/21 04:07:41;;;;;;;18.65;15.05;;;22.00;78.30;;;;;;5089905;28;20031;-63
2023/06/21 04:10:11;;;;;;;20.77;14.90;;;22.00;78.30;;;;;;5090972;28;20035;-64
2023/06/21 04:12:37;;;;;;;17.50;14.52;;;22.00;78.20;;;;;;5105133;28;20031;-64
2023/06/21 04:15:04;;;;;;;17.20;14.35;;;22.00;78.30;;;;;;5078257;28;20016;-65
2023/06/21 04:17:30;;;;;;;18.70;15.60;;;22.00;78.30;;;;;;5087429;28;20531;-65
2023/06/21 04:19:56;;;;;;;19.67;16.42;;;22.00;78.30;;;;;;5089789;28;20118;-64
2023/06/21 04:22:24;;;;;;;20.17;15.80;;;22.00;78.30;;;;;;5085273;28;20019;-64
2023/06/21 04:24:51;;;;;;;18.02;15.32;;;22.00;78.30;;;;;;5075317;28;20461;-64
2023/06/21 04:27:17;;;;;;;19.42;15.68;;;22.10;78.30;;;;;;5092332;28;20115;-64
2023/06/21 04:29:44;;;;;;;19.45;16.85;;;22.10;78.30;;;;;;5090239;28;20440;-64
2023/06/21 04:32:10;;;;;;;19.83;17.13;;;22.10;78.30;;;;;;5111135;28;20024;-64
2023/06/21 04:34:36;;;;;;;18.63;16.63;;;22.10;78.30;;;;;;5111019;28;20334;-64
2023/06/21 04:37:05;;;;;;;18.73;16.23;;;22.00;78.40;;;;;;5092093;28;20028;-64
2023/06/21 04:39:32;;;;;;;19.50;17.30;;;22.00;79.10;;;;;;5111501;28;20028;-64
2023/06/21 04:41:58;;;;;;;19.95;16.58;;;22.00;78.40;;;;;;5093238;28;20053;-64
2023/06/21 04:44:27;;;;;;;21.95;17.92;;;22.00;78.40;;;;;;5109704;28;20479;-64
2023/06/21 04:46:53;;;;;;;21.17;16.80;;;22.00;78.40;;;;;;5094718;28;20040;-64
2023/06/21 04:49:19;;;;;;;23.15;18.60;;;22.00;78.50;;;;;;5090766;28;20028;-64
2023/06/21 04:51:45;;;;;;;21.50;19.05;;;22.00;78.40;;;;;;5092986;28;20027;-64
2023/06/21 04:54:11;;;;;;;23.73;19.77;;;22.10;78.50;;;;;;5092741;28;20472;-64
2023/06/21 04:56:37;;;;;;;22.27;19.33;;;22.00;78.50;;;;;;5091634;28;20055;-64
2023/06/21 04:59:03;;;;;;;25.40;21.17;;;22.10;78.50;;;;;;5095486;28;20079;-64
2023/06/21 05:01:32;;;;;;;26.85;22.30;;;22.10;78.40;;;;;;5075115;28;20027;-64
2023/06/21 05:03:58;;;;;;;25.60;20.92;;;22.00;78.40;;;;;;5097126;28;20392;-64
2023/06/21 05:06:25;;;;;;;25.63;21.30;;;22.00;78.50;;;;;;5084853;28;20043;-64
2023/06/21 05:08:52;;;;;;;26.05;21.83;;;22.00;78.50;;;;;;5093844;28;20095;-64
2023/06/21 05:11:18;;;;;;;25.55;22.10;;;22.00;78.40;;;;;;5096112;28;20024;-64
2023/06/21 05:13:44;;;;;;;25.20;20.38;;;22.10;78.40;;;;;;5095640;28;20077;-64
2023/06/21 05:16:10;;;;;;;35.90;23.17;;;22.20;78.40;;;;;;5077125;28;20074;-64
2023/06/21 05:18:36;;;;;;;25.52;20.88;;;22.30;78.20;;;;;;5092478;28;20043;-64
2023/06/21 05:21:02;;;;;;;27.55;23.40;;;22.30;78.00;;;;;;5075697;28;20036;-64
2023/06/21 05:23:28;;;;;;;26.33;22.00;;;22.30;78.10;;;;;;5094218;28;20548;-64
2023/06/21 05:25:53;;;;;;;27.45;22.10;;;22.30;78.00;;;;;;5067363;28;20062;-64
2023/06/21 05:28:19;;;;;;;28.90;23.65;;;22.30;78.00;;;;;;5091541;28;20038;-65
2023/06/21 05:30:45;;;;;;;27.23;23.10;;;22.20;78.00;;;;;;5074735;28;20030;-63
2023/06/21 05:33:11;;;;;;;28.25;23.58;;;22.20;78.00;;;;;;5087502;28;20028;-64
2023/06/21 05:35:36;;;;;;;27.23;23.27;;;22.20;78.10;;;;;;5091334;28;20132;-63
2023/06/21 05:38:02;;;;;;;26.40;22.75;;;22.30;78.00;;;;;;5093291;28;20099;-64
2023/06/21 05:40:28;;;;;;;26.23;21.70;;;22.40;77.90;;;;;;5072743;28;20106;-64
2023/06/21 05:42:53;;;;;;;29.85;24.08;;;22.50;77.70;;;;;;5092404;28;20020;-64
2023/06/21 05:45:20;;;;;;;27.05;22.73;;;22.50;77.40;;;;;;5092474;28;20423;-63
2023/06/21 05:47:46;;;;;;;27.77;23.90;;;22.50;77.30;;;;;;5075869;28;20044;-64
2023/06/21 05:50:11;;;;;;;27.67;23.40;;;22.60;77.20;;;;;;5074602;28;20515;-64
2023/06/21 05:52:37;;;;;;;27.13;23.02;;;22.70;77.20;;;;;;5076369;28;20114;-64
2023/06/21 05:55:03;;;;;;;26.77;23.33;;;22.70;77.00;;;;;;5093874;28;20024;-64
2023/06/21 05:57:29;;;;;;;27.27;24.20;;;22.80;76.90;;;;;;5094948;28;20032;-64
2023/06/21 05:59:56;;;;;;;27.73;23.38;;;22.80;76.90;;;;;;5091976;28;20111;-64
2023/06/21 06:02:21;;;;;;;27.00;24.08;;;22.80;76.80;;;;;;5091664;28;20053;-64
2023/06/21 06:04:48;;;;;;;27.52;22.60;;;22.80;76.70;;;;;;5092341;28;20032;-64
2023/06/21 06:07:14;;;;;;;26.38;23.45;;;22.80;76.70;;;;;;5059387;28;20429;-64
2023/06/21 06:09:39;;;;;;;24.67;22.02;;;22.90;76.70;;;;;;5091210;28;20036;-65
2023/06/21 06:12:06;;;;;;;23.67;21.15;;;23.00;76.40;;;;;;5093138;28;20023;-64
2023/06/21 06:14:31;;;;;;;26.60;22.58;;;23.00;76.10;;;;;;5089457;28;20031;-64
2023/06/21 06:16:57;;;;;;;24.20;21.17;;;23.00;76.10;;;;;;5093130;28;20613;-64
2023/06/21 06:19:23;;;;;;;23.30;20.08;;;23.10;75.90;;;;;;5074499;28;20020;-64
2023/06/21 06:21:49;;;;;;;23.42;20.65;;;23.10;75.80;;;;;;5087338;28;20512;-64
2023/06/21 06:24:14;;;;;;;23.10;20.63;;;23.30;75.70;;;;;;5090236;28;20080;-64
2023/06/21 06:26:40;;;;;;;21.17;18.73;;;23.30;75.60;;;;;;5074852;28;20034;-64
2023/06/21 06:29:06;;;;;;;22.40;19.30;;;23.30;75.30;;;;;;5095298;28;20012;-64
2023/06/21 06:31:31;;;;;;;27.92;21.20;;;23.30;75.30;;;;;;5090770;28;20575;-64
2023/06/21 06:33:57;;;;;;;25.42;21.80;;;23.40;75.20;;;;;;5091711;28;20038;-64
2023/06/21 06:36:23;;;;;;;24.75;21.75;;;23.40;75.20;;;;;;5075782;28;20024;-64
2023/06/21 06:38:49;;;;;;;24.67;22.02;;;23.40;75.10;;;;;;5076580;28;20372;-65
2023/06/21 06:41:16;;;;;;;25.67;23.00;;;23.50;75.00;;;;;;5091020;28;20024;-64
2023/06/21 06:43:42;;;;;;;24.05;21.05;;;23.50;74.70;;;;;;5076309;28;20031;-64
2023/06/21 06:46:07;;;;;;;25.67;21.05;;;23.50;74.70;;;;;;5094343;28;20034;-64
2023/06/21 06:48:33;;;;;;;22.65;20.00;;;23.60;74.60;;;;;;5094911;28;20030;-64
2023/06/21 06:50:59;;;;;;;23.23;20.73;;;23.70;74.50;;;;;;5093867;28;20437;-64
2023/06/21 06:53:25;;;;;;;24.58;22.08;;;23.80;74.20;;;;;;5060474;28;20027;-64
2023/06/21 06:55:51;;;;;;;24.83;22.13;;;23.90;74.00;;;;;;5077023;28;20027;-64
2023/06/21 06:58:21;;;;;;;28.55;24.77;;;23.90;73.60;;;;;;5076600;28;20061;-64
2023/06/21 07:00:47;;;;;;;28.75;25.65;;;23.90;73.50;;;;;;5076625;28;20032;-64
2023/06/21 07:03:13;;;;;;;28.70;25.73;;;23.90;73.50;;;;;;5093074;28;20051;-64
2023/06/21 07:05:48;;;;;;;27.92;24.92;;;24.10;73.20;;;;;;5085935;28;20433;-64
2023/06/21 07:08:14;;;;;;;28.75;25.65;;;24.10;72.90;;;;;;5055819;28;20024;-65
2023/06/21 07:10:40;;;;;;;29.65;26.55;;;24.20;72.70;;;;;;5076770;28;20493;-64
2023/06/21 07:13:06;;;;;;;29.17;26.25;;;24.40;72.20;;;;;;5091577;28;20026;-64
2023/06/21 07:15:33;;;;;;;30.08;26.92;;;24.40;72.00;;;;;;5075940;28;20020;-64
2023/06/21 07:17:58;;;;;;;31.08;27.88;;;24.30;71.80;;;;;;5094491;28;20031;-64
2023/06/21 07:20:24;;;;;;;33.45;30.02;;;24.30;72.00;;;;;;5062358;28;20024;-64
2023/06/21 07:22:50;;;;;;;34.33;30.90;;;24.30;71.50;;;;;;5092132;28;20070;-64
2023/06/21 07:25:16;;;;;;;34.60;31.15;;;24.40;71.30;;;;;;5094532;28;20426;-64
2023/06/21 07:27:42;;;;;;;36.28;32.65;;;24.60;70.90;;;;;;5094237;28;20348;-64
2023/06/21 07:30:08;;;;;;;34.35;30.88;;;24.90;70.30;;;;;;5076560;28;20111;-64
2023/06/21 07:32:34;;;;;;;31.52;28.35;;;25.30;69.70;;;;;;5093622;28;20012;-64
2023/06/21 07:35:01;;;;;;;32.08;28.67;;;25.50;68.90;;;;;;5094547;28;20103;-64
2023/06/21 07:37:27;;;;;;;32.80;29.58;;;25.70;68.60;;;;;;5094567;28;20529;-64
2023/06/21 07:39:55;;;;;;;32.08;28.83;;;25.60;68.40;;;;;;5076518;28;20020;-65
2023/06/21 07:42:22;;;;;;;31.90;28.63;;;25.60;68.30;;;;;;5094104;28;20031;-64
2023/06/21 07:44:50;;;;;;;30.50;27.42;;;25.50;68.40;;;;;;5074816;28;20409;-64
2023/06/21 07:47:16;;;;;;;32.25;29.02;;;25.40;68.40;;;;;;5093946;28;20457;-64
2023/06/21 07:49:42;;;;;;;33.03;29.90;;;25.50;68.30;;;;;;5094292;28;20038;-64
2023/06/21 07:52:09;;;;;;;33.22;29.42;;;25.70;68.00;;;;;;5094265;28;20017;-64
2023/06/21 07:54:35;;;;;;;30.42;27.42;;;25.80;67.10;;;;;;5092084;28;20142;-64
2023/06/21 07:57:01;;;;;;;31.67;28.67;;;26.10;66.50;;;;;;5093673;28;20476;-64
2023/06/21 07:59:27;;;;;;;29.90;26.80;;;26.40;66.10;;;;;;5079280;28;20469;-64
2023/06/21 08:01:52;;;;;;;28.55;25.67;;;26.60;65.50;;;;;;5093834;28;20020;-64
2023/06/21 08:04:18;;;;;;;29.27;26.38;;;26.80;64.70;;;;;;5074596;28;20578;-64
2023/06/21 08:06:44;;;;;;;30.73;27.55;;;26.70;64.60;;;;;;5075430;28;20028;-64
2023/06/21 08:09:09;;;;;;;29.27;26.38;;;26.80;64.70;;;;;;5075601;28;20032;-64
2023/06/21 08:11:35;;;;;;;28.40;25.60;;;26.90;64.40;;;;;;5061779;28;20028;-64
2023/06/21 08:14:01;;;;;;;28.05;25.30;;;27.10;64.00;;;;;;5094128;28;20035;-64
2023/06/21 08:16:26;;;;;;;27.38;24.55;;;27.20;63.40;;;;;;5073738;28;20342;-64
2023/06/21 08:18:52;;;;;;;28.95;26.00;;;27.30;63.10;;;;;;5075640;28;20073;-64
2023/06/21 08:21:18;;;;;;;25.95;23.35;;;27.20;63.10;;;;;;5075725;28;20020;-64
2023/06/21 08:23:44;;;;;;;25.65;23.10;;;27.30;62.90;;;;;;5093397;28;20047;-64
2023/06/21 08:26:10;;;;;;;25.33;22.73;;;27.40;62.50;;;;;;5074550;28;20035;-64
2023/06/21 08:28:36;;;;;;;26.20;23.63;;;27.30;62.20;;;;;;5092747;28;20028;-64
2023/06/21 08:31:02;;;;;;;26.80;23.77;;;27.40;62.40;;;;;;5074885;28;20032;-64
2023/06/21 08:33:28;;;;;;;23.65;21.45;;;27.40;62.10;;;;;;5073401;28;20020;-64
2023/06/21 08:35:54;;;;;;;23.48;21.05;;;27.30;62.20;;;;;;5094986;28;20403;-64
2023/06/21 08:38:19;;;;;;;21.70;19.52;;;27.30;61.90;;;;;;5092268;28;20052;-64
2023/06/21 08:40:46;;;;;;;21.90;19.75;;;27.40;61.80;;;;;;5060701;28;20024;-64
2023/06/21 08:43:12;;;;;;;20.05;17.95;;;27.60;61.30;;;;;;5082729;28;20027;-64
2023/06/21 08:45:37;;;;;;;21.58;18.13;;;27.70;60.70;;;;;;5094812;28;20355;-64
2023/06/21 08:48:06;;;;;;;18.75;16.73;;;27.90;60.50;;;;;;5070617;28;20112;-64
2023/06/21 08:50:36;;;;;;;18.85;15.95;;;28.10;60.10;;;;;;5067187;28;20025;-64
2023/06/21 08:53:06;;;;;;;18.55;16.63;;;28.30;59.60;;;;;;5045252;28;20066;-64
2023/06/21 08:55:35;;;;;;;17.85;16.02;;;28.40;59.80;;;;;;5064910;28;20029;-64
2023/06/21 08:58:09;;;;;;;19.30;17.30;;;28.40;58.90;;;;;;5070027;28;20111;-63
2023/06/21 09:00:47;;;;;;;17.08;15.38;;;28.30;58.80;;;;;;5073535;28;20112;-64
2023/06/21 09:03:19;;;;;;;16.85;13.95;;;28.10;59.20;;;;;;5058750;28;20104;-64
2023/06/21 09:05:53;;;;;;;17.13;15.05;;;27.80;59.40;;;;;;5076787;28;20028;-64
2023/06/21 09:08:19;;;;;;;16.10;14.40;;;27.70;59.30;;;;;;5075229;28;20150;-64
2023/06/21 09:10:48;;;;;;;17.15;15.43;;;27.70;59.10;;;;;;5073794;28;20361;-64
2023/06/21 09:13:15;;;;;;;16.45;14.77;;;27.60;58.90;;;;;;5076299;28;20024;-64
2023/06/21 09:15:41;;;;;;;14.48;12.98;;;27.50;58.90;;;;;;5058699;28;20349;-64
2023/06/21 09:18:07;;;;;;;15.18;13.38;;;27.40;59.10;;;;;;5061654;28;20029;-64
2023/06/21 09:20:33;;;;;;;12.80;11.50;;;27.40;59.40;;;;;;5073318;28;20024;-64
2023/06/21 09:22:59;;;;;;;11.75;10.52;;;27.60;59.10;;;;;;5058454;28;20102;-64
2023/06/21 09:25:27;;;;;;;12.80;11.32;;;27.90;58.60;;;;;;5076396;28;20028;-64
2023/06/21 09:27:53;;;;;;;14.25;10.93;;;28.00;58.10;;;;;;5074957;28;20032;-64
2023/06/21 09:30:21;;;;;;;11.63;10.43;;;28.10;57.90;;;;;;5069838;28;20024;-64
2023/06/21 09:32:47;;;;;;;11.00;9.90;;;28.30;57.60;;;;;;5067274;28;20082;-65
2023/06/21 09:35:16;;;;;;;11.93;9.68;;;28.50;57.50;;;;;;5071252;28;20349;-65
2023/06/21 09:37:41;;;;;;;11.18;9.18;;;28.60;57.40;;;;;;5058723;28;20081;-64
2023/06/21 09:40:08;;;;;;;13.07;8.85;;;28.90;57.10;;;;;;5058488;28;20454;-64
2023/06/21 09:42:39;;;;;;;11.65;9.27;;;28.90;56.70;;;;;;5063800;28;20025;-65
2023/06/21 09:45:31;;;;;;;10.45;7.68;;;28.70;56.70;;;;;;5055272;28;20039;-64
2023/06/21 09:47:57;;;;;;;8.52;5.97;;;28.80;56.40;;;;;;5063491;28;20538;-64
2023/06/21 09:50:23;;;;;;;9.23;5.28;;;29.00;56.20;;;;;;5055298;28;20111;-64
2023/06/21 09:52:49;;;;;;;8.18;5.30;;;29.00;55.80;;;;;;5063788;28;20024;-64
2023/06/21 09:55:16;;;;;;;7.15;4.32;;;29.10;55.50;;;;;;5039231;28;20044;-64
2023/06/21 09:57:42;;;;;;;7.97;4.25;;;29.10;55.00;;;;;;5037708;28;20458;-64
2023/06/21 10:00:08;;;;;;;6.88;4.05;;;28.80;54.90;;;;;;5059539;28;20029;-64
2023/06/21 10:02:41;;;;;;;7.47;4.15;;;28.50;55.10;;;;;;5061663;28;20029;-64
2023/06/21 10:05:18;;;;;;;6.90;3.72;;;28.30;55.40;;;;;;5067460;28;20276;-65
2023/06/21 10:07:46;;;;;;;6.80;3.80;;;28.30;55.40;;;;;;5069205;28;20056;-64
2023/06/21 10:10:12;;;;;;;8.02;4.03;;;28.20;55.60;;;;;;5068648;28;20024;-64
2023/06/21 10:12:54;;;;;;;8.88;4.45;;;28.40;55.50;;;;;;5067548;28;20203;-64
2023/06/21 10:15:21;;;;;;;7.65;4.40;;;28.80;54.70;;;;;;5061690;28;20117;-64
2023/06/21 10:17:47;;;;;;;7.85;3.50;;;29.10;54.40;;;;;;5067181;28;20471;-65
2023/06/21 10:20:15;;;;;;;6.55;3.40;;;29.30;53.80;;;;;;5064424;28;20367;-64
2023/06/21 10:22:46;;;;;;;6.97;3.10;;;29.50;53.30;;;;;;5062388;28;20021;-64
2023/06/21 10:25:15;;;;;;;7.00;3.00;;;29.60;53.10;;;;;;5060843;28;20110;-64
2023/06/21 10:27:43;;;;;;;5.95;3.03;;;29.80;52.70;;;;;;5068381;28;20038;-64
2023/06/21 10:30:11;;;;;;;7.40;3.40;;;30.00;52.10;;;;;;5060429;28;20387;-64
2023/06/21 10:32:38;;;;;;;8.05;3.15;;;30.10;51.90;;;;;;5068675;28;20039;-64
2023/06/21 10:35:14;;;;;;;6.07;2.83;;;30.10;51.60;;;;;;5067450;28;20070;-64
2023/06/21 10:38:01;;;;;;;6.05;2.88;;;30.00;51.20;;;;;;5059529;28;20029;-64
2023/06/21 10:40:28;;;;;;;6.13;3.08;;;29.70;51.40;;;;;;5069191;28;20353;-64
2023/06/21 10:42:56;;;;;;;6.40;2.90;;;29.40;51.50;;;;;;5068965;28;20051;-64
2023/06/21 10:45:22;;;;;;;6.50;2.83;;;29.30;51.70;;;;;;5066611;28;20107;-63
2023/06/21 10:47:49;;;;;;;6.22;2.75;;;28.90;52.30;;;;;;5083482;28;20173;-64
2023/06/21 10:50:17;;;;;;;6.55;2.90;;;28.60;51.90;;;;;;5088770;28;20020;-64
2023/06/21 10:52:45;;;;;;;5.07;2.58;;;28.70;52.00;;;;;;5058588;28;20025;-64
2023/06/21 10:55:13;;;;;;;5.68;2.33;;;29.00;51.60;;;;;;5074708;28;20035;-64
2023/06/21 10:57:40;;;;;;;6.03;2.50;;;29.30;51.20;;;;;;5076770;28;20062;-65
2023/06/21 11:00:08;;;;;;;6.50;3.03;;;29.40;50.60;;;;;;5077782;28;20028;-64
2023/06/21 11:02:34;;;;;;;6.57;2.90;;;29.50;50.10;;;;;;5057698;28;20504;-64
2023/06/21 11:05:17;;;;;;;8.35;2.72;;;29.40;50.00;;;;;;5050873;28;20391;-64
2023/06/21 11:07:59;;;;;;;6.07;3.08;;;29.20;50.10;;;;;;5045840;28;20029;-64
2023/06/21 11:10:36;;;;;;;6.18;2.78;;;29.10;50.30;;;;;;5066249;28;20766;-64
2023/06/21 11:13:02;;;;;;;5.35;2.60;;;29.20;50.30;;;;;;5068594;28;20029;-64
2023/06/21 11:15:30;;;;;;;10.18;3.05;;;29.40;50.00;;;;;;5039620;28;20016;-64
2023/06/21 11:18:01;;;;;;;6.45;3.45;;;29.50;49.80;;;;;;5056071;28;20036;-64
2023/06/21 11:20:28;;;;;;;6.25;3.40;;;29.40;49.50;;;;;;5074276;28;20051;-64
2023/06/21 11:22:58;;;;;;;7.00;3.25;;;29.20;50.20;;;;;;5047856;28;20349;-64
2023/06/21 11:25:24;;;;;;;7.93;3.25;;;29.10;51.00;;;;;;5056407;28;20028;-64
2023/06/21 11:28:26;;;;;;;6.50;3.40;;;29.20;50.40;;;;;;5056412;28;20029;-64
2023/06/21 11:31:02;;;;;;;5.35;2.72;;;29.40;49.70;;;;;;4996623;28;20054;-64
2023/06/21 11:33:32;;;;;;;7.10;2.92;;;29.50;49.50;;;;;;5064524;28;20108;-64
2023/06/21 11:36:03;;;;;;;6.35;3.25;;;29.30;49.50;;;;;;5074423;28;20028;-64
2023/06/21 11:38:30;;;;;;;5.60;3.00;;;29.00;49.80;;;;;;5074056;28;20028;-64
2023/06/21 11:40:57;;;;;;;6.68;3.28;;;28.90;49.90;;;;;;5072653;28;20349;-64
2023/06/21 11:43:22;;;;;;;5.65;2.92;;;28.90;49.90;;;;;;5065758;28;20028;-64
2023/06/21 11:46:04;;;;;;;7.43;3.20;;;28.80;49.90;;;;;;5056207;28;20361;-64
2023/06/21 11:48:30;;;;;;;7.20;3.13;;;28.80;50.00;;;;;;5062223;28;20321;-64
2023/06/21 11:51:08;;;;;;;6.72;3.17;;;28.90;50.20;;;;;;5073886;28;20342;-64
2023/06/21 11:53:41;;;;;;;5.82;3.13;;;29.10;50.00;;;;;;5072032;28;20029;-64
2023/06/21 11:56:09;;;;;;;5.60;2.88;;;29.30;49.60;;;;;;5073554;28;20083;-64
2023/06/21 11:58:35;;;;;;;6.05;2.97;;;29.50;49.20;;;;;;5073809;28;20376;-64
2023/06/21 12:01:01;;;;;;;5.70;2.70;;;29.50;49.00;;;;;;5073902;28;20047;-64
2023/06/21 12:03:27;;;;;;;4.55;2.38;;;29.30;48.70;;;;;;5054660;28;20118;-64
2023/06/21 12:05:54;;;;;;;6.43;3.38;;;29.00;48.90;;;;;;5055590;28;20449;-64
2023/06/21 12:08:22;;;;;;;5.65;2.60;;;28.80;48.90;;;;;;5040357;28;20024;-64
2023/06/21 12:10:49;;;;;;;5.82;2.80;;;28.80;49.10;;;;;;5077664;28;20100;-64
2023/06/21 12:13:17;;;;;;;6.53;2.10;;;28.60;49.40;;;;;;5076914;28;20427;-64
2023/06/21 12:16:06;;;;;;;4.95;2.30;;;28.50;49.70;;;;;;5077032;28;20090;-64
2023/06/21 12:18:34;;;;;;;6.55;2.65;;;28.50;49.50;;;;;;5065271;28;20368;-63
2023/06/21 12:21:05;;;;;;;6.03;2.83;;;28.50;49.40;;;;;;5077389;28;20041;-63
2023/06/21 12:23:31;;;;;;;6.45;2.55;;;28.30;49.60;;;;;;5077269;28;20039;-63
2023/06/21 12:25:59;;;;;;;5.40;2.53;;;28.20;50.20;;;;;;5054710;28;20090;-64
2023/06/21 12:28:26;;;;;;;6.13;2.75;;;28.20;50.20;;;;;;5059621;28;20044;-64
2023/06/21 12:31:07;;;;;;;6.70;2.70;;;28.10;50.00;;;;;;5059351;28;20025;-64
2023/06/21 12:33:36;;;;;;;5.68;2.53;;;28.10;50.00;;;;;;5077108;28;20029;-64
2023/06/21 12:36:29;;;;;;;5.20;2.58;;;28.10;50.20;;;;;;5057086;28;20430;-64